Terminal Aerodrome Forecast
Issued by NWS

Home | Current Version | Previous Version | Text Only | Print | Product List | Glossary On
Versions: 1 2 3 4 5 6 7 8 9 10 11 12 13 14
000
FTUS44 KLZK 201700 RRA
TAFADF
TAF
KADF 201743Z 2018/2118 18006KT P6SM SCT060 BKN250
     FM210100 15003KT P6SM SCT060 BKN250
     FM210600 15003KT P6SM VCSH SCT030 BKN060
      TEMPO 2108/2112 5SM SHRA BR BKN030
     FM211200 20006KT P6SM VCSH SCT025 BKN050
      TEMPO 2112/2116 5SM SHRA BR BKN025=

USA.gov is the U.S. government's official web portal to all federal, state and local government web resources and services.